HST,Max TemperatureF,Mean TemperatureF,Min TemperatureF,Max Dew PointF,MeanDew PointF,Min DewpointF,Max Humidity, Mean Humidity, Min Humidity, Max Sea Level PressureIn, Mean Sea Level PressureIn, Min Sea Level PressureIn, Max VisibilityMiles, Mean VisibilityMiles, Min VisibilityMiles, Max Wind SpeedMPH, Mean Wind SpeedMPH, Max Gust SpeedMPH,PrecipitationIn, CloudCover, Events, WindDirDegrees
2012-10-1,82,75,67,70,67,61,87,77,67,30.01,29.97,29.92,10,8,2,15,7,18,T,7,Rain,221
2012-10-2,80,75,70,72,69,67,97,83,69,30.02,29.97,29.91,10,9,2,10,5,14,0.08,8,Rain,276
2012-10-3,83,76,69,72,70,67,97,83,69,30.05,30.01,29.96,10,9,2,15,6,18,0.02,8,Rain,253
2012-10-4,80,76,71,70,68,65,93,80,67,30.06,30.02,29.97,10,10,4,8,5,10,0.12,8,Rain,268
2012-10-5,83,77,70,68,66,64,90,74,58,30.01,29.96,29.90,10,10,10,15,4,18,T,7,,169
2012-10-6,84,76,67,69,66,60,87,75,62,29.95,29.91,29.85,10,10,10,14,7,20,0.00,5,,166
2012-10-7,86,77,67,69,66,62,97,76,55,29.94,29.90,29.86,10,10,10,13,5,24,0.00,3,,164
2012-10-8,86,76,65,73,68,59,87,74,61,29.99,29.93,29.89,10,10,9,21,8,24,0.00,0,,153
2012-10-9,86,76,66,74,69,60,93,76,58,30.10,30.03,29.95,10,10,5,18,6,23,0.00,5,Rain,174
2012-10-10,86,78,69,72,70,64,93,79,65,30.12,30.06,29.99,10,10,7,16,6,20,T,5,Rain,185
2012-10-11,83,76,69,71,68,62,93,78,62,30.12,30.08,30.01,10,8,1,13,6,15,0.13,6,Rain,238
2012-10-12,85,76,66,68,65,59,87,69,51,30.16,30.10,30.04,10,10,9,13,6,16,0.02,3,Rain,234
2012-10-13,84,76,67,70,66,58,81,72,63,30.18,30.13,30.08,10,10,9,13,7,15,T,4,Rain,256
2012-10-14,84,75,66,72,67,56,90,74,58,30.15,30.10,30.05,10,8,2,16,6,18,T,6,Rain,308
2012-10-15,83,77,71,73,70,67,93,79,65,30.11,30.07,30.00,10,9,2,16,6,18,0.15,6,Rain,293
2012-10-16,83,75,66,70,66,62,90,74,58,30.04,30.00,29.94,10,10,10,14,6,17,0.00,4,Rain,207
2012-10-17,79,74,69,72,68,64,97,84,71,30.01,29.97,29.93,10,8,2,9,6,12,0.57,7,Rain,240
2012-10-18,83,74,64,70,65,56,84,73,62,30.04,30.00,29.94,10,10,10,14,7,16,0.00,5,,186
2012-10-19,82,76,69,69,65,60,90,71,51,30.06,30.01,29.96,10,10,7,14,4,17,0.05,6,Rain,127
2012-10-20,84,75,66,72,68,59,81,70,58,30.02,29.97,29.92,10,8,1,17,5,22,0.10,7,Rain,310
2012-10-21,82,73,63,67,64,57,97,80,62,30.03,29.99,29.94,10,10,10,15,6,20,T,4,,223
2012-10-22,83,75,66,69,64,58,81,68,54,30.04,29.99,29.93,10,10,6,14,7,18,0.00,5,Rain,217
2012-10-23,77,74,70,70,68,66,97,87,76,30.02,29.97,29.90,10,8,2,10,6,14,0.11,8,Rain,226
2012-10-24,81,77,72,73,70,67,94,82,69,29.95,29.91,29.86,10,9,3,13,5,17,0.03,8,Rain,176
2012-10-25,84,76,68,68,66,62,90,74,58,30.01,29.95,29.89,10,10,10,17,8,22,T,4,,181
2012-10-26,86,76,66,72,67,59,87,73,59,30.09,30.03,29.97,10,9,3,14,7,17,0.00,5,Rain,186
2012-10-27,83,78,72,70,67,63,93,78,62,30.08,30.04,29.97,10,10,2,13,7,15,0.12,6,Rain,266
2012-10-28,83,75,67,68,64,60,87,71,54,30.05,30.01,29.95,10,10,10,13,5,16,0.00,5,Rain,318
2012-10-29,83,74,65,70,65,55,87,71,55,30.09,30.04,29.98,10,10,2,10,6,17,T,5,Rain,255
2012-10-30,83,74,65,70,66,59,87,73,58,30.10,30.06,29.99,10,10,6,14,7,16,0.01,5,Rain,249
2012-10-31,83,74,65,68,63,57,87,69,51,30.08,30.04,30.00,10,10,10,14,6,17,0.00,3,Rain,227